createdAt,value
2018-03-15T00:02:28.879Z,99.90
2018-03-15T00:07:12.208Z,99.90
2018-03-15T00:11:55.556Z,99.90
2018-03-15T00:16:38.884Z,99.90
2018-03-15T00:21:22.306Z,99.90
2018-03-15T00:26:05.675Z,99.90
2018-03-15T00:30:49.016Z,99.90
2018-03-15T00:35:32.314Z,99.90
2018-03-15T00:40:15.653Z,99.90
2018-03-15T00:44:58.984Z,99.90
2018-03-15T00:49:42.324Z,99.90
2018-03-15T00:54:25.611Z,99.90
2018-03-15T00:59:08.964Z,99.90
2018-03-15T01:03:52.292Z,99.90
2018-03-15T01:08:35.645Z,99.90
2018-03-15T01:13:19.899Z,99.90
2018-03-15T01:18:03.175Z,99.90
2018-03-15T01:22:46.518Z,99.90
2018-03-15T01:27:29.838Z,99.90
2018-03-15T01:32:13.194Z,99.90
2018-03-15T01:36:57.293Z,99.90
2018-03-15T01:41:40.637Z,99.90
2018-03-15T01:46:24.704Z,99.90
2018-03-15T01:51:08.166Z,99.90
2018-03-15T01:55:51.552Z,99.90
2018-03-15T02:00:34.920Z,99.90
2018-03-15T02:05:19.067Z,99.90
2018-03-15T02:10:02.486Z,99.90
2018-03-15T02:14:45.828Z,99.90
2018-03-15T02:19:29.177Z,99.90
2018-03-15T02:24:12.510Z,99.90
2018-03-15T02:28:55.894Z,99.90
2018-03-15T02:33:39.275Z,99.90
2018-03-15T02:38:22.605Z,99.90
2018-03-15T02:43:06.060Z,99.90
2018-03-15T02:47:49.747Z,99.90
2018-03-15T02:52:34.020Z,99.90
2018-03-15T02:57:17.431Z,99.90
2018-03-15T03:02:00.758Z,99.90
2018-03-15T03:06:44.188Z,99.90
2018-03-15T03:11:27.825Z,99.90
2018-03-15T03:16:11.327Z,99.90
2018-03-15T03:20:54.716Z,99.90
2018-03-15T03:25:38.077Z,99.90
2018-03-15T03:30:21.452Z,99.90
2018-03-15T03:35:05.055Z,99.90
2018-03-15T03:39:48.364Z,99.90
2018-03-15T03:44:32.487Z,99.90
2018-03-15T03:49:15.872Z,99.90
2018-03-15T03:53:59.259Z,99.90
2018-03-15T03:58:42.959Z,99.90
2018-03-15T04:03:27.016Z,99.90
2018-03-15T04:08:10.367Z,99.90
2018-03-15T04:12:54.601Z,99.90
2018-03-15T04:17:37.960Z,99.90
2018-03-15T04:22:22.054Z,99.90
2018-03-15T04:27:05.465Z,99.90
2018-03-15T04:31:49.573Z,99.90
2018-03-15T04:36:33.202Z,99.90
2018-03-15T04:41:16.490Z,99.90
2018-03-15T04:45:59.897Z,99.90
2018-03-15T04:50:43.279Z,99.90
2018-03-15T04:55:26.689Z,99.90
2018-03-15T05:00:10.014Z,99.90
2018-03-15T05:04:53.307Z,99.90
2018-03-15T05:09:37.421Z,99.90
2018-03-15T05:14:20.799Z,99.90
2018-03-15T05:19:04.118Z,99.90
2018-03-15T05:23:47.539Z,99.90
2018-03-15T05:28:31.389Z,99.90
2018-03-15T05:33:15.000Z,99.90
2018-03-15T05:37:59.242Z,99.90
2018-03-15T05:42:42.636Z,99.90
2018-03-15T05:47:26.131Z,99.90
2018-03-15T05:52:10.263Z,99.90
2018-03-15T05:56:53.684Z,99.90
2018-03-15T06:01:39.838Z,99.90
2018-03-15T06:06:23.248Z,99.90
2018-03-15T06:11:06.616Z,99.90
2018-03-15T06:15:50.020Z,99.90
2018-03-15T06:20:33.453Z,99.90
2018-03-15T06:25:16.978Z,99.90
2018-03-15T06:30:01.693Z,99.90
2018-03-15T06:34:45.065Z,99.90
2018-03-15T06:39:29.191Z,99.90
2018-03-15T06:44:12.717Z,99.90
2018-03-15T06:48:56.093Z,99.90
2018-03-15T06:53:39.580Z,99.90
2018-03-15T06:58:23.176Z,99.90
2018-03-15T07:03:07.258Z,99.90
2018-03-15T07:07:50.554Z,99.90
2018-03-15T07:12:33.986Z,99.90
2018-03-15T07:17:17.365Z,99.90
2018-03-15T07:22:01.515Z,99.90
2018-03-15T07:26:44.829Z,99.90
2018-03-15T07:31:28.186Z,99.90
2018-03-15T07:36:11.512Z,99.90
2018-03-15T07:40:54.960Z,99.90
2018-03-15T07:45:38.352Z,99.90
2018-03-15T07:50:22.444Z,99.90
2018-03-15T07:55:06.098Z,99.90
2018-03-15T07:59:49.469Z,99.90
2018-03-15T08:04:32.918Z,99.90
2018-03-15T08:09:17.416Z,99.90
2018-03-15T08:14:00.745Z,99.90
2018-03-15T08:18:44.864Z,99.90
2018-03-15T08:23:28.236Z,99.90
2018-03-15T08:28:11.587Z,99.90
2018-03-15T08:32:55.696Z,99.90
2018-03-15T08:37:39.235Z,99.90
2018-03-15T08:42:22.692Z,99.90
2018-03-15T08:47:06.973Z,99.90
2018-03-15T08:51:50.537Z,99.90
2018-03-15T08:56:34.230Z,99.30
2018-03-15T09:01:19.328Z,97.10
2018-03-15T09:06:02.715Z,97.40
2018-03-15T09:10:46.912Z,96.50
2018-03-15T09:15:30.334Z,96.50
2018-03-15T09:20:13.806Z,95.50
2018-03-15T09:25:03.699Z,93.00
2018-03-15T09:29:48.423Z,93.80
2018-03-15T09:34:33.546Z,93.20
2018-03-15T09:39:17.423Z,90.80
2018-03-15T09:44:01.721Z,90.90
2018-03-15T09:48:45.980Z,91.20
2018-03-15T09:53:29.418Z,91.10
2018-03-15T09:58:12.913Z,91.20
2018-03-15T10:02:56.403Z,90.80
2018-03-15T10:07:39.831Z,86.50
2018-03-15T10:12:24.051Z,91.10
2018-03-15T10:22:20.674Z,91.60
2018-03-15T10:27:04.799Z,91.30
2018-03-15T10:31:49.479Z,91.30
2018-03-15T10:36:33.241Z,91.30
2018-03-15T10:41:17.506Z,89.40
2018-03-15T10:46:00.955Z,89.50
2018-03-15T10:50:44.275Z,87.70
2018-03-15T10:55:27.712Z,81.80
2018-03-15T11:00:11.924Z,84.10
2018-03-15T11:05:01.103Z,84.10
2018-03-15T11:09:55.270Z,85.20
2018-03-15T11:14:40.220Z,80.00
2018-03-15T11:19:25.143Z,79.70
2018-03-15T11:24:09.267Z,77.30
2018-03-15T11:28:52.639Z,77.40
2018-03-15T11:33:35.951Z,77.60
2018-03-15T11:38:19.292Z,77.70
2018-03-15T11:43:02.692Z,76.50
2018-03-15T11:47:46.037Z,78.80
2018-03-15T11:52:29.503Z,77.50
2018-03-15T11:57:12.919Z,78.10
2018-03-15T12:01:56.260Z,77.50
2018-03-15T12:06:40.542Z,76.50
2018-03-15T12:11:23.847Z,76.10
2018-03-15T12:16:08.156Z,73.20
2018-03-15T12:20:51.599Z,73.10
2018-03-15T12:25:35.850Z,69.20
2018-03-15T12:30:22.130Z,67.50
2018-03-15T12:35:06.433Z,64.20
2018-03-15T12:39:50.066Z,64.30
2018-03-15T12:44:33.428Z,68.70
2018-03-15T12:49:17.536Z,69.90
2018-03-15T12:54:01.685Z,66.40
2018-03-15T12:58:45.844Z,64.30
2018-03-15T13:03:29.229Z,64.30
2018-03-15T13:08:12.599Z,56.00
2018-03-15T13:12:56.840Z,57.30
2018-03-15T13:17:40.446Z,57.00
2018-03-15T13:22:23.844Z,57.50
2018-03-15T13:27:07.383Z,54.90
2018-03-15T13:31:50.818Z,56.70
2018-03-15T13:36:35.819Z,56.60
2018-03-15T13:41:19.254Z,56.40
2018-03-15T13:46:02.632Z,56.20
2018-03-15T13:50:46.057Z,54.00
2018-03-15T13:55:30.182Z,57.20
2018-03-15T14:00:13.572Z,57.20
2018-03-15T14:04:57.705Z,57.80
2018-03-15T14:09:41.128Z,57.70
2018-03-15T14:14:24.456Z,60.60
2018-03-15T14:19:07.899Z,59.40
2018-03-15T14:23:51.265Z,59.40
2018-03-15T14:28:35.452Z,57.70
2018-03-15T14:33:19.627Z,58.10
2018-03-15T14:38:03.890Z,60.50
2018-03-15T14:42:47.339Z,60.40
2018-03-15T14:47:30.867Z,61.40
2018-03-15T14:52:14.343Z,60.50
2018-03-15T14:56:58.469Z,60.60
2018-03-15T15:01:42.688Z,60.50
2018-03-15T15:06:26.032Z,60.50
2018-03-15T15:11:09.484Z,62.60
2018-03-15T15:15:52.980Z,65.70
2018-03-15T15:20:36.469Z,67.20
2018-03-15T15:25:20.619Z,70.20
2018-03-15T15:30:03.975Z,70.30
2018-03-15T15:34:47.719Z,73.10
2018-03-15T15:39:31.151Z,75.70
2018-03-15T15:44:16.314Z,76.90
2018-03-15T15:48:59.934Z,76.90
2018-03-15T15:53:43.437Z,75.40
2018-03-15T15:58:26.874Z,75.00
2018-03-15T16:03:10.204Z,74.00
2018-03-15T16:07:53.673Z,74.90
2018-03-15T16:12:37.162Z,78.00
2018-03-15T16:17:20.677Z,81.60
2018-03-15T16:22:04.807Z,83.90
2018-03-15T16:26:48.234Z,83.70
2018-03-15T16:31:31.721Z,84.90
2018-03-15T16:36:15.867Z,87.20
2018-03-15T16:40:59.236Z,87.20
2018-03-15T16:45:43.604Z,86.30
2018-03-15T16:50:27.749Z,87.00
2018-03-15T16:55:11.211Z,87.00
2018-03-15T16:59:54.602Z,88.10
2018-03-15T17:04:38.089Z,88.90
2018-03-15T17:09:21.718Z,89.50
2018-03-15T17:14:05.237Z,89.80
2018-03-15T17:19:06.700Z,90.40
2018-03-15T17:24:15.976Z,90.40
2018-03-15T17:29:08.551Z,90.60
2018-03-15T17:33:53.459Z,90.90
2018-03-15T17:38:36.841Z,90.60
2018-03-15T17:43:20.569Z,90.70
2018-03-15T17:48:04.146Z,90.80
2018-03-15T17:52:48.631Z,91.40
2018-03-15T17:57:32.264Z,92.20
2018-03-15T18:02:15.847Z,92.60
2018-03-15T18:06:59.662Z,92.90
2018-03-15T18:11:43.355Z,93.40
2018-03-15T18:16:27.749Z,94.00
2018-03-15T18:21:15.639Z,94.20
2018-03-15T18:26:00.470Z,94.30
2018-03-15T18:30:48.224Z,99.20
2018-03-15T18:35:40.442Z,99.90
2018-03-15T18:40:26.581Z,99.90
2018-03-15T18:45:13.398Z,99.90
2018-03-15T18:49:57.644Z,99.90
2018-03-15T18:54:41.033Z,99.90
2018-03-15T18:59:26.494Z,99.90
2018-03-15T19:04:12.193Z,99.90
2018-03-15T19:08:55.540Z,99.90
2018-03-15T19:13:38.948Z,99.90
2018-03-15T19:18:22.360Z,99.90
2018-03-15T19:23:05.801Z,99.90
2018-03-15T19:27:49.150Z,99.90
2018-03-15T19:32:32.591Z,99.90
2018-03-15T19:37:15.996Z,99.90
2018-03-15T19:41:59.413Z,99.90
2018-03-15T19:46:42.862Z,99.90
2018-03-15T19:51:26.228Z,99.90
2018-03-15T19:56:09.642Z,99.90
2018-03-15T20:00:53.079Z,99.90
2018-03-15T20:05:37.407Z,99.90
2018-03-15T20:10:20.770Z,99.90
2018-03-15T20:15:04.121Z,99.90
2018-03-15T20:19:47.491Z,99.90
2018-03-15T20:24:32.848Z,99.90
2018-03-15T20:29:16.192Z,99.90
2018-03-15T20:34:05.154Z,99.90
2018-03-15T20:38:48.633Z,99.90
2018-03-15T20:48:25.205Z,99.90
2018-03-15T20:53:08.545Z,99.90
2018-03-15T20:57:51.889Z,99.90
2018-03-15T21:02:35.223Z,99.90
2018-03-15T21:07:18.576Z,99.90
2018-03-15T21:12:01.943Z,99.90
2018-03-15T21:16:45.343Z,99.90
2018-03-15T21:21:28.673Z,99.90
2018-03-15T21:26:12.262Z,99.90
2018-03-15T21:30:55.675Z,99.90
2018-03-15T21:35:39.050Z,99.90
2018-03-15T21:40:22.373Z,99.90
2018-03-15T21:45:05.762Z,99.90
2018-03-15T21:49:49.914Z,99.90
2018-03-15T21:54:34.070Z,99.90
2018-03-15T21:59:17.523Z,99.90
2018-03-15T22:04:00.866Z,99.90
2018-03-15T22:08:45.059Z,99.90
2018-03-15T22:13:28.410Z,99.90
2018-03-15T22:18:11.792Z,99.90
2018-03-15T22:22:55.169Z,99.90
2018-03-15T22:27:38.488Z,99.90
2018-03-15T22:32:21.836Z,99.90
2018-03-15T22:37:05.983Z,99.90
2018-03-15T22:41:50.130Z,99.90
2018-03-15T22:46:33.475Z,99.90
2018-03-15T22:51:16.830Z,99.90
2018-03-15T22:56:00.242Z,99.90
2018-03-15T23:00:44.665Z,99.90
2018-03-15T23:05:27.993Z,99.90
2018-03-15T23:10:11.340Z,99.90
2018-03-15T23:14:54.722Z,99.90
2018-03-15T23:19:38.858Z,99.90
2018-03-15T23:24:22.178Z,99.90
2018-03-15T23:29:05.635Z,99.90
2018-03-15T23:33:48.968Z,99.90
2018-03-15T23:38:32.380Z,99.90
2018-03-15T23:43:16.461Z,99.90
2018-03-15T23:47:59.800Z,99.90
2018-03-15T23:52:43.154Z,99.90
2018-03-15T23:57:26.473Z,99.90
